Ely, Nevada Weather observations

Data are for observation ending at time listed.
 Day   Time    Ave.   Ave.  Ave.  Vector   Max.   Stn.    Total    Solar   Ave.  
  of    of     Air    Rel.  Wind   Wind    Wind   Baro.  Precip.   Rad.    Soil  
Year   Day     Temp.  Hum.  Speed  Dir.    Gust   Pres.                    Temp. 
2015   (PST)    F      %     mph   deg.    mph     mb.     in.     W/m2     F   
------------------------------------------------------------------------------
  88   20:00   49.7    24    7.5   149      9.6   812.7    0.00       0    57.9
  88   20:10   49.3    24    3.8   198      8.3   812.9    0.00       1    57.4
  88   20:20   48.9    24    4.6   195      7.8   812.9    0.00       0    56.9
  88   20:30   50.1    24    2.7   202      6.9   813.0    0.00       0    56.4
  88   20:40   50.8    23    3.5   200      5.3   813.1    0.00       0    56.0
  88   20:50   50.9    23    3.6   165      5.7   813.1    0.00       0    55.6
  88   21:00   50.4    23    4.3   152      6.9   813.2    0.00       0    55.3
  88   21:10   47.2    26    1.8    52      3.7   813.4    0.00       0    55.0
  88   21:20   46.6    26    2.4    93      3.5   813.3    0.00       0    54.6
  88   21:30   46.6    26    3.2    82      5.3   813.3    0.00       0    54.2
  88   21:40   47.0    26    2.3   122      5.0   813.3    0.00       1    53.8
  88   21:50   44.7    27    4.1   168      6.1   813.3    0.00       1    53.4
  88   22:00   43.5    29    4.8   175      9.5   813.3    0.00       1    53.0
  88   22:10   43.6    29    7.2   153     10.1   813.4    0.00       1    52.6
  88   22:20   41.4    31    5.1   123      8.0   813.4    0.00       0    52.3
  88   22:30   40.9    32    4.3   168      6.4   813.5    0.00       1    51.9
  88   22:40   40.3    33    5.4   130      8.2   813.5    0.00       1    51.5
  88   22:50   39.7    34    8.2   144     10.2   813.4    0.00       0    51.2
  88   23:00   39.3    34    4.7   151      9.9   813.6    0.00       0    50.8
  88   23:10   39.0    35    5.8   157      9.7   813.6    0.00       1    50.4
  88   23:20   38.6    35    6.3   138      8.8   813.6    0.00       0    50.1
  88   23:30   39.3    35    8.7   146     11.6   813.6    0.00       0    49.7
  88   23:40   40.8    33    8.1   143     10.9   813.6    0.00       0    49.5
  88   23:50   40.2    33    9.6   154     12.9   813.6    0.00       0    49.2
  89    0:00   40.0    33    9.1   150     13.2   813.6    0.00       0    49.0
  89    0:10   38.3    36    8.1   138     10.8   813.7    0.00       1    48.8
  89    0:20   37.5    39    4.1   144      8.8   813.8    0.00       0    48.5
  89    0:30   36.7    40    5.3   181      8.6   813.9    0.00       1    48.2
  89    0:40   36.2    42    7.4   172     10.4   813.9    0.00       1    47.8
  89    0:50   36.5    41    6.6   160     11.3   813.9    0.00       1    47.5
  89    1:00   36.1    42    4.3   161      7.5   813.9    0.00       1    47.2
  89    1:10   36.7    40    7.3   158     10.3   813.9    0.00       0    47.0
  89    1:20   35.5    41    8.3   144     10.2   813.9    0.00       0    46.7
  89    1:30   34.7    42    6.2   124      8.9   813.9    0.00       0    46.5
  89    1:40   34.8    42    4.4   123      7.0   813.9    0.00       0    46.2
  89    1:50   34.1    42    6.4   147      8.3   813.9    0.00       0    45.9
  89    2:00   32.1    46    6.8   149      9.2   813.8    0.00       0    45.6
  89    2:10   31.4    49    8.7   148     11.0   813.8    0.00       1    45.3
  89    2:20   31.0    49    7.6   134     10.4   813.9    0.00       1    45.0
  89    2:30   30.9    50    7.9   138      9.6   813.9    0.00       0    44.7
  89    2:40   31.9    47    5.8   150      8.5   813.8    0.00       0    44.4
  89    2:50   31.0    50    7.1   154     10.4   813.9    0.00       0    44.1
  89    3:00   30.2    50    7.4   156     10.4   813.9    0.00       0    43.8
  89    3:10   30.7    48    6.9   156      9.6   814.0    0.00       0    43.6
  89    3:20   30.6    51    6.9   154     11.5   814.2    0.00       0    43.3
  89    3:30   31.4    50    9.3   149     11.9   814.1    0.00       0    43.1
  89    3:40   29.9    52    8.9   146     11.2   814.2    0.00       0    42.8
  89    3:50   28.8    54    9.5   148     12.9   814.2    0.00       0    42.6
  89    4:00   28.7    54    9.6   146     12.0   814.3    0.00       0    42.3
  89    4:10   28.3    55    9.9   150     12.0   814.2    0.00       0    42.1
  89    4:20   28.3    54   10.2   149     13.3   814.3    0.00       0    41.8
  89    4:30   29.0    51   10.0   144     12.6   814.3    0.00       0    41.5
  89    4:40   28.7    52   10.6   152     13.3   814.2    0.00       0    41.2
  89    4:50   28.3    53   10.5   151     12.9   814.3    0.00       0    41.0
  89    5:00   27.6    54    9.6   157     13.4   814.3    0.00       0    40.8
  89    5:10   27.9    53   10.7   158     14.0   814.3    0.00       0    40.5
  89    5:20   28.3    52    9.8   160     13.2   814.4    0.00       5    40.3
  89    5:30   28.2    53   10.9   156     14.2   814.4    0.00       7    40.1
  89    5:40   28.6    52   11.8   155     15.6   814.5    0.00       7    39.9
  89    5:50   28.5    53   11.9   147     15.6   814.6    0.00      16    39.8
  89    6:00   28.2    54   11.6   145     15.1   814.7    0.00      20    39.7
  89    6:10   28.7    52   12.7   146     15.9   814.7    0.00      28    39.6
  89    6:20   29.3    51   12.2   150     15.1   814.8    0.00     126    39.5
  89    6:30   31.3    48   11.3   148     14.6   814.8    0.00     181    39.4
  89    6:40   33.9    44   10.4   148     13.4   814.8    0.00     221    39.4
  89    6:50   35.5    42   10.4   150     14.2   814.8    0.00     261    39.6
  89    7:00   37.6    39    9.9   153     13.7   814.8    0.00     303    39.9
  89    7:10   40.1    35   11.4   151     14.9   814.7    0.00     344    40.5
  89    7:20   41.8    34    9.5   154     12.3   814.7    0.00     385    41.9
  89    7:30   43.6    32    9.8   152     13.8   814.7    0.00     425    43.4
  89    7:40   45.7    30   10.1   150     12.7   814.7    0.00     462    44.9
  89    7:50   47.5    29   10.7   148     12.8   814.6    0.00     499    46.4
  89    8:00   49.5    26    9.7   147     11.9   814.6    0.00     533    47.9
  89    8:10   50.9    24    9.2   148     11.6   814.5    0.00     567    49.5
  89    8:20   52.3    23    9.3   150     12.6   814.4    0.00     598    51.1
  89    8:30   53.8    22    7.9   154     12.0   814.4    0.00     629    52.7
  89    8:40   55.4    20    7.7   149     11.2   814.4    0.00     659    54.3
  89    8:50   57.1    19    6.4   149     10.3   814.4    0.00     689    55.9
  89    9:00   58.4    18    6.4   172      8.8   814.3    0.00     719    57.5
  89    9:10   59.8    17    4.8   157      7.5   814.3    0.00     748    59.2
  89    9:20   61.6    16    4.0    16      9.1   814.2    0.00     775    60.9
  89    9:30   63.3    14    4.7     0      9.0   814.1    0.00     800    62.6
  89    9:40   64.5    13    5.3     0     10.0   814.0    0.00     824    64.1
  89    9:50   65.6    12    4.0    23      8.4   813.9    0.00     846    65.5
  89   10:00   66.7    12    2.6   112      6.4   813.8    0.00     867    66.9
  89   10:10   67.0    12    2.5   101      9.7   813.7    0.00     882    68.3
  89   10:20   67.1    12    3.5   154      9.1   813.6    0.00     900    69.7
  89   10:30   67.9    12    3.4   172      7.1   813.5    0.00     918    70.9
  89   10:40   68.5    11    4.5   121     13.3   813.3    0.00     931    72.2
  89   10:50   68.0    11    6.9   162     16.7   813.3    0.00     941    73.1
  89   11:00   68.5    11    3.5   133      8.1   813.2    0.00     948    73.8
  89   11:10   68.7    11    2.1   136      8.2   813.1    0.00     956    74.7
  89   11:20   69.5    11    4.8   141      9.7   813.0    0.00     962    75.7
  89   11:30   69.6    11    6.7   125     12.1   812.9    0.00     969    76.4
  89   11:40   70.0    11    4.9   112     10.4   812.8    0.00     975    76.6
  89   11:50   70.2    11    7.8   144     21.7   812.7    0.00     975    77.0
  89   12:00   70.4    10    8.0   168     19.6   812.5    0.00     981    77.4
  89   12:10   70.6    10    9.4   175     16.6   812.4    0.00     982    77.7
  89   12:20   70.2    10    7.7   163     13.8   812.3    0.00     980    77.8
  89   12:30   71.1     9   11.0   191     22.6   812.2    0.00     981    77.7
  89   12:40   71.9     9   12.8   211     20.4   812.0    0.00     967    77.2
  89   12:50   71.9     8   10.0   222     18.3   811.9    0.00     959    76.2
  89   13:00   72.3     8   12.2   217     20.2   811.8    0.00     947    75.4
  89   13:10   72.0     9   12.6   209     21.3   811.7    0.00     932    75.5
  89   13:20   71.6     8    7.6   211     15.1   811.6    0.00     910    76.0
  89   13:30   72.7     8   12.6   209     21.9   811.5    0.00     895    76.5
  89   13:40   72.0     8   10.8   195     21.0   811.4    0.00     871    76.8
  89   13:50   72.3     8   10.8   202     19.7   811.2    0.00     851    76.9
  89   14:00   72.2     8    8.6   227     15.6   811.1    0.00     830    77.1
  89   14:10   72.3     7    9.0   184     15.2   811.0    0.00     800    77.0
  89   14:20   72.3     7    7.2   182     16.0   810.9    0.00     775    76.9
  89   14:30   72.7     7    9.1   177     18.3   810.8    0.00     748    76.7
  89   14:40   72.3     7    6.8   169     12.9   810.7    0.00     719    76.3
  89   14:50   73.0     7   10.5   169     15.1   810.6    0.00     689    75.9
  89   15:00   72.3     6    6.4   175     12.7   810.5    0.00     657    75.4
  89   15:10   72.9     6    7.5   198     17.0   810.4    0.00     622    74.9
  89   15:20   72.0     7    5.7   194     11.2   810.4    0.00     588    74.5
  89   15:30   72.2     6    4.6   201     11.6   810.3    0.00     552    74.0
  89   15:40   72.8     6    6.7   216     11.8   810.2    0.00     516    73.5
  89   15:50   71.9     6    4.3   280      9.9   810.1    0.00     477    72.9
  89   16:00   72.2     6    9.2   190     18.5   810.1    0.00     439    72.4
  89   16:10   71.7     7    8.1   159     13.2   810.0    0.00     398    71.8
  89   16:20   72.0     7    9.5   189     17.3   810.0    0.00     357    71.2
  89   16:30   71.6     7    8.9   163     15.3   810.0    0.00     318    70.6
  89   16:40   71.5     7    9.1   178     14.0   810.0    0.00     279    70.0
  89   16:50   71.0     8    8.6   167     13.0   810.0    0.00     241    69.4
  89   17:00   70.8     8    6.2   171     14.0   810.0    0.00     203    68.8
  89   17:10   70.9     8    9.0   195     12.3   810.0    0.00     169    68.3
  89   17:20   70.2     8   10.8   194     13.7   810.0    0.00     133    67.7
  89   17:30   69.5     8    9.3   191     13.2   809.9    0.00      91    67.1
  89   17:40   68.2     9   10.2   194     14.1   810.0    0.00      58    66.6
  89   17:50   66.4    10    7.0   198     10.2   810.0    0.00      23    66.0
  89   18:00   63.7    10    7.2   186      8.6   810.0    0.00       7    65.4
  89   18:10   61.9    11    6.6   180      8.6   810.1    0.00       7    64.7
  89   18:20   60.8    11    4.5   154      6.9   810.2    0.00       2    63.8
  89   18:30   57.1    12    6.4   128      8.0   810.2    0.00       0    63.1
  89   18:40   56.2    12    7.4   122      9.6   810.3    0.00       0    62.5
  89   18:50   56.9    12    7.0   122      9.6   810.4    0.00       0    61.8
  89   19:00   56.6    12    7.9   126     11.4   810.5    0.00       0    61.2
  89   19:10   55.5    12    8.9   130     11.8   810.6    0.00       0    60.7
  89   19:20   55.1    13   10.5   138     13.4   810.7    0.00       0    60.2
  89   19:30   53.5    13   10.3   142     12.6   810.8    0.00       0    59.7
  89   19:40   50.5    15    9.9   146     12.1   810.8    0.00       1    59.2
  89   19:50   51.5    15   10.9   152     12.9   810.9    0.00       1    58.7

Return to Ely, Nevada graphs page.


Western Regional Climate Center,wrcc@dri.edu